Time;durP1;ratioP1;P1;durP2;ratioP2;P2;SDS_P1;SDS_P2;PMS_P1;PMS_P2;Temp;Humidity;BMP_temperature;BMP_pressure;BME280_temperature;BME280_humidity;BME280_pressure;Samples;Min_cycle;Max_cycle;Signal;HPM_P1;HPM_P2
2023/07/17 00:00:42;;;;;;;7.27;1.87;;;;;;;18.06;100.00;101763.66;4917857;29;20278;-86
2023/07/17 00:03:07;;;;;;;9.60;2.17;;;;;;;17.59;100.00;101728.00;4919175;29;20184;-86
2023/07/17 00:05:33;;;;;;;5.33;2.10;;;;;;;17.77;100.00;101773.31;4920102;29;20188;-86
2023/07/17 00:07:59;;;;;;;7.47;2.13;;;;;;;17.79;100.00;101787.50;4923262;29;20196;-86
2023/07/17 00:10:24;;;;;;;6.00;1.87;;;;;;;17.97;100.00;101760.41;4923990;29;20210;-86
2023/07/17 00:12:49;;;;;;;8.70;2.50;;;;;;;17.76;100.00;101730.94;4923774;29;20187;-86
2023/07/17 00:15:15;;;;;;;5.27;1.80;;;;;;;17.38;100.00;101743.59;4919923;29;20187;-86
2023/07/17 00:17:41;;;;;;;7.63;2.07;;;;;;;17.49;100.00;101803.63;4920940;29;20231;-87
2023/07/17 00:20:10;;;;;;;7.70;2.43;;;;;;;17.68;100.00;101875.88;4922480;29;20204;-86
2023/07/17 00:22:35;;;;;;;5.70;1.63;;;;;;;17.73;100.00;101800.03;4930773;28;20439;-83
2023/07/17 00:25:00;;;;;;;2.70;1.50;;;;;;;17.83;100.00;101776.00;4921281;29;20534;-86
2023/07/17 00:27:26;;;;;;;4.97;1.60;;;;;;;17.89;100.00;101760.69;4921850;29;20180;-85
2023/07/17 00:29:52;;;;;;;5.87;1.73;;;;;;;18.10;100.00;101774.88;4915950;29;20239;-86
2023/07/17 00:32:18;;;;;;;4.67;2.40;;;;;;;17.72;100.00;101751.44;4922940;29;20290;-86
2023/07/17 00:34:43;;;;;;;6.67;2.00;;;;;;;17.74;100.00;101774.59;4922448;29;20932;-86
2023/07/17 00:37:09;;;;;;;8.23;2.30;;;;;;;17.39;100.00;101823.09;4928666;29;20219;-87
2023/07/17 00:39:35;;;;;;;4.30;1.83;;;;;;;17.53;100.00;101856.34;4915240;29;20204;-87
2023/07/17 00:42:01;;;;;;;4.03;1.90;;;;;;;17.51;100.00;101858.47;4922400;29;20230;-86
2023/07/17 00:44:27;;;;;;;4.13;1.70;;;;;;;17.12;100.00;101841.41;4922389;29;20590;-85
2023/07/17 00:46:54;;;;;;;6.40;2.47;;;;;;;17.29;100.00;101899.50;4923327;29;20436;-87
2023/07/17 00:49:22;;;;;;;6.63;2.10;;;;;;;17.09;100.00;101860.81;4922784;29;20459;-86
2023/07/17 00:51:47;;;;;;;7.37;2.20;;;;;;;17.28;100.00;101933.09;4922314;29;20439;-87
2023/07/17 00:54:17;;;;;;;7.47;2.00;;;;;;;17.24;100.00;101934.59;4923011;29;20443;-88
2023/07/17 00:56:44;;;;;;;9.07;3.07;;;;;;;16.69;100.00;101855.56;4923887;29;20263;-89
2023/07/17 00:59:10;;;;;;;6.30;2.00;;;;;;;17.07;100.00;101899.00;4921259;29;20877;-87
2023/07/17 01:01:35;;;;;;;8.53;2.00;;;;;;;17.21;100.00;101951.25;4923076;29;20447;-87
2023/07/17 01:04:05;;;;;;;5.50;2.13;;;;;;;16.76;100.00;101858.25;4924759;29;20180;-86
2023/07/17 01:06:38;;;;;;;8.10;1.90;;;;;;;16.74;100.00;101899.09;4918970;29;20219;-87
2023/07/17 01:09:04;;;;;;;7.20;2.27;;;;;;;17.15;100.00;101999.06;4935067;28;20499;-86
2023/07/17 01:11:30;;;;;;;5.70;1.67;;;;;;;17.19;100.00;102006.78;4919118;29;20468;-87
2023/07/17 01:13:56;;;;;;;9.57;2.87;;;;;;;17.43;100.00;102032.31;4925013;29;20538;-89
2023/07/17 01:16:21;;;;;;;6.60;2.90;;;;;;;17.16;100.00;101941.06;4922175;29;20998;-86
2023/07/17 01:18:47;;;;;;;11.00;2.63;;;;;;;17.45;100.00;102011.25;4920342;29;20204;-87
2023/07/17 01:21:16;;;;;;;10.00;3.10;;;;;;;17.52;100.00;102004.72;4919139;29;20192;-89
2023/07/17 01:23:42;;;;;;;10.33;2.60;;;;;;;17.37;100.00;102015.03;4922337;29;20458;-91
2023/07/17 01:26:25;;;;;;;7.43;3.53;;;;;;;16.94;100.00;102016.41;4922214;29;20443;-87
2023/07/17 01:28:51;;;;;;;7.13;2.97;;;;;;;17.31;100.00;102102.66;4917782;29;20497;-86
2023/07/17 01:31:16;;;;;;;5.13;2.67;;;;;;;17.00;100.00;102100.63;4920251;29;20953;-83
2023/07/17 01:33:42;;;;;;;7.57;2.60;;;;;;;16.98;100.00;102086.47;4920218;29;20200;-85
2023/07/17 01:36:07;;;;;;;7.10;2.97;;;;;;;17.00;100.00;102127.75;4920746;29;20221;-83
2023/07/17 01:38:36;;;;;;;6.10;2.90;;;;;;;17.08;100.00;102152.75;4936917;28;20211;-83
2023/07/17 01:41:01;;;;;;;9.23;3.00;;;;;;;16.20;100.00;102006.69;4921148;29;20282;-85
2023/07/17 01:43:27;;;;;;;5.63;3.00;;;;;;;16.76;100.00;102080.44;4920300;29;20503;-83
2023/07/17 01:45:52;;;;;;;6.77;2.63;;;;;;;16.59;100.00;102009.59;4920259;29;20270;-83
2023/07/17 01:48:18;;;;;;;4.60;2.17;;;;;;;16.22;100.00;101960.44;4918605;29;20195;-86
2023/07/17 01:50:45;;;;;;;5.00;2.20;;;;;;;16.57;100.00;102090.22;4917353;29;20229;-85
2023/07/17 01:53:10;;;;;;;7.10;2.50;;;;;;;16.28;100.00;101951.47;4917405;29;20565;-87
2023/07/17 01:55:36;;;;;;;5.53;2.10;;;;;;;16.84;100.00;101967.25;4922995;29;20478;-85
2023/07/17 01:58:02;;;;;;;5.67;2.77;;;;;;;16.38;100.00;101976.28;4919983;29;20223;-83
2023/07/17 02:00:27;;;;;;;4.03;2.27;;;;;;;16.23;100.00;102013.56;4917622;29;20585;-85
2023/07/17 02:02:52;;;;;;;4.23;2.13;;;;;;;15.41;100.00;101872.13;4923338;29;20620;-84
2023/07/17 02:05:18;;;;;;;4.30;2.33;;;;;;;16.33;100.00;102045.63;4920716;29;20518;-84
2023/07/17 02:07:43;;;;;;;7.40;2.70;;;;;;;16.08;100.00;102048.91;4919249;29;20216;-85
2023/07/17 02:10:09;;;;;;;5.23;2.20;;;;;;;16.20;100.00;102084.34;4917647;29;20250;-85
2023/07/17 02:12:35;;;;;;;5.40;2.50;;;;;;;16.02;100.00;102053.28;4919669;29;20211;-84
2023/07/17 02:15:01;;;;;;;7.37;2.67;;;;;;;15.88;100.00;102135.50;4920171;29;20452;-85
2023/07/17 02:17:27;;;;;;;6.40;2.80;;;;;;;16.03;100.00;102194.88;4919621;29;20218;-86
2023/07/17 02:19:52;;;;;;;5.97;2.53;;;;;;;16.17;100.00;102207.41;4920890;29;20459;-85
2023/07/17 02:22:17;;;;;;;11.73;3.13;;;;;;;16.13;100.00;102257.56;4918499;29;20624;-86
2023/07/17 02:24:43;;;;;;;5.63;2.30;;;;;;;16.13;100.00;102225.09;4920822;29;20731;-84
2023/07/17 02:27:08;;;;;;;6.10;2.40;;;;;;;16.26;100.00;102225.16;4918522;29;20176;-83
2023/07/17 02:29:34;;;;;;;7.40;2.40;;;;;;;16.19;100.00;102161.19;4925027;29;20732;-85
2023/07/17 02:31:59;;;;;;;5.77;2.60;;;;;;;16.21;100.00;102208.66;4914243;29;20563;-84
2023/07/17 02:34:25;;;;;;;6.53;2.90;;;;;;;16.39;100.00;102172.06;4920672;29;20200;-87
2023/07/17 02:36:52;;;;;;;8.07;2.40;;;;;;;16.25;100.00;102115.16;4918532;29;20580;-86
2023/07/17 02:39:18;;;;;;;16.03;3.70;;;;;;;16.21;100.00;102097.69;4919456;29;20213;-87
2023/07/17 02:41:44;;;;;;;7.43;3.33;;;;;;;16.39;100.00;102161.22;4918636;29;21480;-84
2023/07/17 02:44:09;;;;;;;7.07;2.27;;;;;;;15.79;100.00;102093.41;4920441;29;20193;-85
2023/07/17 02:46:35;;;;;;;10.00;2.63;;;;;;;16.37;100.00;102187.66;4921165;29;20499;-85
2023/07/17 02:49:00;;;;;;;3.93;2.10;;;;;;;16.40;100.00;102144.78;4943701;28;20207;-86
2023/07/17 02:51:25;;;;;;;8.00;2.57;;;;;;;15.77;100.00;102071.97;4925831;29;20188;-86
2023/07/17 02:53:51;;;;;;;5.20;2.50;;;;;;;15.79;100.00;102066.34;4925524;29;20250;-86
2023/07/17 02:56:16;;;;;;;8.37;2.23;;;;;;;16.24;100.00;102097.25;4927524;29;20219;-85
2023/07/17 02:58:42;;;;;;;6.07;2.63;;;;;;;16.41;100.00;102070.63;4926225;29;20211;-87
2023/07/17 03:01:09;;;;;;;7.70;2.77;;;;;;;16.14;100.00;102075.19;4926232;29;20192;-85
2023/07/17 03:03:34;;;;;;;6.60;2.67;;;;;;;16.13;100.00;102051.84;4924929;29;20192;-86
2023/07/17 03:06:00;;;;;;;8.43;2.40;;;;;;;15.98;100.00;102021.44;4925691;29;20436;-86
2023/07/17 03:08:26;;;;;;;9.90;2.67;;;;;;;16.21;100.00;102005.63;4925122;29;20216;-83
2023/07/17 03:10:52;;;;;;;7.13;1.83;;;;;;;15.54;100.00;101907.31;4939890;29;20665;-88
2023/07/17 03:13:20;;;;;;;6.00;2.00;;;;;;;15.62;100.00;101949.53;4932849;29;20448;-86
2023/07/17 03:15:46;;;;;;;5.97;2.50;;;;;;;16.14;100.00;102021.06;4919702;29;20235;-87
2023/07/17 03:18:12;;;;;;;7.40;2.20;;;;;;;15.92;100.00;101941.94;4940892;29;20880;-86
2023/07/17 03:20:43;;;;;;;4.07;1.87;;;;;;;16.12;100.00;101990.66;4921201;29;20447;-83
2023/07/17 03:23:08;;;;;;;7.17;2.33;;;;;;;15.32;100.00;101862.56;4919366;29;20191;-87
2023/07/17 03:25:34;;;;;;;4.80;1.90;;;;;;;15.63;100.00;101912.53;4919651;29;20455;-86
2023/07/17 03:27:59;;;;;;;5.60;1.93;;;;;;;15.88;100.00;101956.06;4922788;29;20246;-87
2023/07/17 03:30:24;;;;;;;3.80;1.53;;;;;;;15.75;100.00;101902.78;4924839;29;20642;-84
2023/07/17 03:32:50;;;;;;;6.43;2.43;;;;;;;15.69;100.00;101917.16;4919228;29;20615;-83
2023/07/17 03:35:15;;;;;;;6.40;2.23;;;;;;;14.94;100.00;101824.44;4922740;29;20192;-83
2023/07/17 03:37:40;;;;;;;7.50;2.17;;;;;;;15.79;100.00;101975.22;4921667;29;20224;-89
2023/07/17 03:40:07;;;;;;;5.10;2.20;;;;;;;15.71;100.00;101988.09;4935399;28;20208;-85
2023/07/17 03:42:33;;;;;;;5.97;2.60;;;;;;;15.57;100.00;101943.94;4922923;29;20660;-86
2023/07/17 03:44:59;;;;;;;8.80;2.97;;;;;;;15.57;100.00;101955.59;4920818;29;20436;-86
2023/07/17 03:47:25;;;;;;;4.80;2.07;;;;;;;15.69;100.00;101904.44;4922002;29;20191;-84
2023/07/17 03:49:51;;;;;;;6.37;2.37;;;;;;;15.14;100.00;101860.44;4920289;29;20458;-85
2023/07/17 03:52:16;;;;;;;7.03;2.50;;;;;;;15.33;100.00;101927.25;4918330;29;20447;-89
2023/07/17 03:54:41;;;;;;;9.50;2.57;;;;;;;15.18;100.00;101893.31;4920229;29;20191;-85
2023/07/17 03:57:07;;;;;;;4.33;2.10;;;;;;;15.50;100.00;101948.47;4918862;29;20216;-86
2023/07/17 03:59:47;;;;;;;6.67;2.47;;;;;;;15.63;100.00;101932.28;4921825;29;20210;-86
2023/07/17 04:02:13;;;;;;;6.60;2.33;;;;;;;15.75;100.00;101965.00;4919702;29;20486;-87
2023/07/17 04:04:38;;;;;;;3.90;1.90;;;;;;;15.29;100.00;101955.69;4920228;29;20454;-84
2023/07/17 04:07:04;;;;;;;7.00;2.67;;;;;;;15.59;100.00;101985.09;4920243;29;20179;-86
2023/07/17 04:09:29;;;;;;;6.30;2.37;;;;;;;15.49;100.00;102007.13;4917243;28;20200;-87
2023/07/17 04:11:55;;;;;;;4.37;2.00;;;;;;;15.00;100.00;101869.56;4922267;29;20196;-86
2023/07/17 04:14:20;;;;;;;4.30;2.20;;;;;;;15.72;100.00;101927.56;4925783;29;20564;-86
2023/07/17 04:16:46;;;;;;;12.07;2.67;;;;;;;15.55;100.00;101962.22;4923746;29;20207;-88
2023/07/17 04:19:11;;;;;;;5.63;2.03;;;;;;;15.05;100.00;101894.94;4911795;29;20215;-85
2023/07/17 04:21:37;;;;;;;7.10;2.53;;;;;;;15.76;100.00;101988.31;4914922;29;20195;-89
2023/07/17 04:24:02;;;;;;;4.93;2.10;;;;;;;15.41;100.00;101961.34;4916796;29;20199;-86
2023/07/17 04:26:28;;;;;;;8.13;2.77;;;;;;;15.84;100.00;102003.53;4919941;29;20230;-85
2023/07/17 04:28:53;;;;;;;7.50;2.40;;;;;;;15.39;100.00;101966.16;4917588;29;20211;-88
2023/07/17 04:31:18;;;;;;;5.87;2.17;;;;;;;15.60;100.00;101986.78;4911126;28;21105;-87
2023/07/17 04:33:44;;;;;;;6.53;2.27;;;;;;;15.86;100.00;102023.09;4918866;29;20203;-87
2023/07/17 04:36:09;;;;;;;10.67;2.67;;;;;;;15.58;100.00;102043.78;4916340;29;20214;-87
2023/07/17 04:38:35;;;;;;;6.37;2.60;;;;;;;15.47;100.00;101975.94;4919712;29;20298;-85
2023/07/17 04:41:00;;;;;;;5.93;2.70;;;;;;;15.68;100.00;102042.59;4920741;29;20552;-87
2023/07/17 04:43:26;;;;;;;14.77;3.03;;;;;;;15.65;100.00;101987.03;4916535;29;20198;-90
2023/07/17 04:45:51;;;;;;;6.90;1.87;;;;;;;15.84;100.00;102009.75;4917007;29;20672;-87
2023/07/17 04:48:17;;;;;;;6.47;3.00;;;;;;;15.38;100.00;101959.88;4931938;29;20191;-87
2023/07/17 04:50:44;;;;;;;6.03;2.13;;;;;;;15.83;100.00;101983.75;4920174;29;21295;-86
2023/07/17 04:53:10;;;;;;;9.10;3.43;;;;;;;15.57;100.00;101982.63;4916450;29;20224;-89
2023/07/17 04:55:38;;;;;;;6.73;2.83;;;;;;;15.51;100.00;101966.38;4907241;29;20459;-88
2023/07/17 04:58:03;;;;;;;6.43;2.23;;;;;;;15.81;100.00;102005.59;4915938;29;20195;-88
2023/07/17 05:00:28;;;;;;;5.23;2.00;;;;;;;15.87;100.00;102003.94;4917361;29;20455;-84
2023/07/17 05:02:54;;;;;;;7.43;2.87;;;;;;;15.56;100.00;101934.13;4935308;28;20199;-89
2023/07/17 05:05:19;;;;;;;6.20;2.63;;;;;;;15.25;100.00;101891.47;4916406;29;20196;-86
2023/07/17 05:07:45;;;;;;;5.30;2.37;;;;;;;15.58;100.00;101959.94;4915882;29;20559;-86
2023/07/17 05:10:11;;;;;;;7.60;2.63;;;;;;;15.89;100.00;101995.63;4918001;29;20215;-91
2023/07/17 05:12:38;;;;;;;13.27;3.20;;;;;;;15.72;100.00;101973.53;4919232;29;20231;-86
2023/07/17 05:15:04;;;;;;;10.10;2.50;;;;;;;15.29;100.00;101912.47;4919492;29;20219;-87
2023/07/17 05:17:29;;;;;;;6.07;2.33;;;;;;;15.55;100.00;101946.84;4917749;29;20511;-88
2023/07/17 05:19:55;;;;;;;15.33;2.53;;;;;;;15.35;100.00;101935.13;4934831;28;20498;-84
2023/07/17 05:22:20;;;;;;;5.33;2.07;;;;;;;15.95;100.00;101979.38;4919653;29;20191;-86
2023/07/17 05:24:47;;;;;;;5.10;2.20;;;;;;;15.50;100.00;101868.19;4913723;29;20203;-86
2023/07/17 05:27:12;;;;;;;6.50;2.20;;;;;;;16.14;100.00;101966.06;4923442;29;20199;-86
2023/07/17 05:29:38;;;;;;;8.13;2.43;;;;;;;16.23;100.00;101979.19;4922144;29;20463;-87
2023/07/17 05:32:04;;;;;;;5.53;2.03;;;;;;;15.70;100.00;101857.41;4921519;29;20199;-87
2023/07/17 05:34:29;;;;;;;5.07;1.93;;;;;;;16.03;100.00;101960.25;4921508;29;20230;-88
2023/07/17 05:36:55;;;;;;;7.07;2.67;;;;;;;16.11;100.00;101974.59;4916355;29;20467;-86
2023/07/17 05:39:20;;;;;;;7.97;2.60;;;;;;;16.12;100.00;101970.88;4918404;29;20293;-89
2023/07/17 05:41:46;;;;;;;8.40;2.10;;;;;;;16.43;100.00;101975.63;4922037;29;20202;-89
2023/07/17 05:44:12;;;;;;;8.07;2.90;;;;;;;16.09;100.00;101952.34;4919330;29;20203;-89
2023/07/17 05:46:38;;;;;;;6.20;2.80;;;;;;;16.42;100.00;101974.81;4920966;29;20227;-89
2023/07/17 05:49:03;;;;;;;9.70;3.13;;;;;;;16.47;100.00;101956.06;4919584;29;20507;-88
2023/07/17 05:51:29;;;;;;;12.40;2.80;;;;;;;16.55;100.00;101962.28;4920001;29;20192;-88
2023/07/17 05:53:55;;;;;;;7.50;2.50;;;;;;;16.72;100.00;101955.38;4919771;29;20196;-87
2023/07/17 05:56:22;;;;;;;5.90;2.70;;;;;;;16.53;100.00;101951.66;4917186;29;20479;-86
2023/07/17 05:58:47;;;;;;;8.73;2.67;;;;;;;16.20;100.00;101893.00;4920882;29;20352;-87
2023/07/17 06:01:12;;;;;;;8.27;3.50;;;;;;;16.32;100.00;101886.94;4933563;29;20456;-89
2023/07/17 06:03:38;;;;;;;7.80;3.17;;;;;;;16.53;100.00;101942.72;4922627;29;20195;-90
2023/07/17 06:06:03;;;;;;;10.37;3.10;;;;;;;16.65;100.00;101944.56;4918882;29;20184;-88
2023/07/17 06:08:29;;;;;;;9.17;2.37;;;;;;;16.83;100.00;101924.09;4918108;29;20638;-86
2023/07/17 06:10:54;;;;;;;6.53;2.87;;;;;;;16.84;100.00;101917.66;4919819;29;20203;-86
2023/07/17 06:13:20;;;;;;;7.47;2.80;;;;;;;16.36;100.00;101880.88;4918020;29;20279;-89
2023/07/17 06:15:46;;;;;;;7.17;2.50;;;;;;;16.08;100.00;101839.69;4940428;28;20219;-87
2023/07/17 06:18:11;;;;;;;10.43;2.90;;;;;;;16.53;100.00;101902.09;4923418;29;20463;-86
2023/07/17 06:20:37;;;;;;;10.67;3.40;;;;;;;16.75;100.00;101940.56;4918489;29;20444;-87
2023/07/17 06:23:02;;;;;;;8.40;2.87;;;;;;;16.13;100.00;101799.31;4923976;29;20196;-87
2023/07/17 06:25:28;;;;;;;6.83;3.00;;;;;;;16.73;100.00;101886.59;4918051;29;20638;-91
2023/07/17 06:27:53;;;;;;;7.40;2.77;;;;;;;16.08;100.00;101769.34;4923749;29;20208;-89
2023/07/17 06:30:19;;;;;;;7.23;3.03;;;;;;;16.92;100.00;101872.19;4920529;29;20216;-87
2023/07/17 06:32:44;;;;;;;7.93;3.10;;;;;;;17.00;100.00;101889.22;4922444;29;20203;-86
2023/07/17 06:35:10;;;;;;;10.23;3.40;;;;;;;16.25;100.00;101725.34;4922366;29;20198;-88
2023/07/17 06:37:36;;;;;;;7.33;2.37;;;;;;;17.27;100.00;101870.94;4924246;29;20219;-89
2023/07/17 06:40:03;;;;;;;6.83;2.83;;;;;;;14.96;100.00;101473.91;4920241;29;20561;-85
2023/07/17 06:42:30;;;;;;;7.00;3.20;;;;;;;17.38;100.00;101857.50;4924461;29;20724;-86
2023/07/17 06:44:55;;;;;;;7.83;2.80;;;;;;;16.79;100.00;101780.13;4921322;29;20698;-86
2023/07/17 06:47:21;;;;;;;7.00;2.80;;;;;;;17.12;100.00;101844.13;4922717;29;20455;-86
2023/07/17 06:49:46;;;;;;;11.20;3.10;;;;;;;16.92;100.00;101801.72;4921407;29;20215;-90
2023/07/17 06:52:12;;;;;;;11.37;3.73;;;;;;;17.38;100.00;101867.53;4920793;29;20192;-89
2023/07/17 06:54:37;;;;;;;8.27;3.40;;;;;;;17.18;100.00;101837.81;4920669;29;20271;-88
2023/07/17 06:57:03;;;;;;;11.80;3.53;;;;;;;17.28;100.00;101891.59;4924399;29;20743;-90
2023/07/17 06:59:28;;;;;;;9.40;3.80;;;;;;;17.07;100.00;101907.13;4920907;29;20241;-87
2023/07/17 07:01:54;;;;;;;7.47;3.20;;;;;;;16.61;100.00;101856.66;4936604;28;20227;-87
2023/07/17 07:04:20;;;;;;;6.50;3.30;;;;;;;16.93;100.00;101889.28;4924967;29;20192;-90
2023/07/17 07:06:45;;;;;;;8.37;3.27;;;;;;;16.88;100.00;101851.16;4922543;29;20181;-92
2023/07/17 07:09:11;;;;;;;12.17;4.70;;;;;;;17.15;100.00;101882.50;4925174;29;20238;-90
2023/07/17 07:11:36;;;;;;;8.63;3.50;;;;;;;16.85;100.00;101792.78;4940643;28;20736;-89
2023/07/17 07:14:01;;;;;;;11.37;4.00;;;;;;;17.60;100.00;101855.25;4919859;29;20192;-90
2023/07/17 07:16:28;;;;;;;12.13;3.53;;;;;;;17.44;100.00;101817.81;4925226;29;20226;-87
2023/07/17 07:18:53;;;;;;;8.70;3.67;;;;;;;17.71;100.00;101837.44;4939014;28;20629;-90
2023/07/17 07:21:19;;;;;;;8.63;3.77;;;;;;;17.50;100.00;101813.41;4924501;29;20443;-85
2023/07/17 07:23:44;;;;;;;11.57;4.27;;;;;;;17.21;100.00;101715.38;4919742;29;20198;-88
2023/07/17 07:26:10;;;;;;;9.90;3.87;;;;;;;17.78;100.00;101766.84;4924041;29;20187;-90
2023/07/17 07:28:35;;;;;;;8.30;4.00;;;;;;;18.06;100.00;101764.47;4919210;29;20270;-87
2023/07/17 07:31:02;;;;;;;12.90;3.80;;;;;;;17.42;100.00;101688.94;4920625;29;20247;-89
2023/07/17 07:33:28;;;;;;;11.30;4.60;;;;;;;17.50;100.00;101727.47;4941173;28;20216;-87
2023/07/17 07:35:53;;;;;;;9.63;4.00;;;;;;;17.65;100.00;101729.81;4923740;29;20545;-90
2023/07/17 07:38:19;;;;;;;12.00;4.40;;;;;;;17.90;100.00;101772.38;4920775;29;20451;-87
2023/07/17 07:40:44;;;;;;;8.63;3.73;;;;;;;17.60;100.00;101727.75;4920065;29;20672;-89
2023/07/17 07:43:10;;;;;;;8.13;3.27;;;;;;;17.87;100.00;101764.69;4924291;29;20199;-89
2023/07/17 07:45:35;;;;;;;7.97;3.30;;;;;;;17.83;100.00;101778.69;4934744;28;20552;-89
2023/07/17 07:48:01;;;;;;;14.50;4.23;;;;;;;17.31;100.00;101740.13;4937955;28;20240;-90
2023/07/17 07:50:26;;;;;;;12.60;4.43;;;;;;;17.65;100.00;101783.22;4934905;28;20250;-91
2023/07/17 07:52:52;;;;;;;6.53;2.87;;;;;;;17.65;100.00;101784.06;4923593;29;20206;-85
2023/07/17 07:55:17;;;;;;;6.47;2.80;;;;;;;17.99;100.00;101762.88;4922796;29;20200;-88
2023/07/17 07:57:42;;;;;;;8.83;3.80;;;;;;;17.50;100.00;101711.19;4934917;28;20220;-89
2023/07/17 08:00:08;;;;;;;9.70;4.03;;;;;;;17.78;100.00;101792.09;4917319;29;20211;-86
2023/07/17 08:02:34;;;;;;;7.13;3.67;;;;;;;17.73;100.00;101797.34;4921683;29;20199;-88
2023/07/17 08:04:59;;;;;;;6.50;3.17;;;;;;;17.98;100.00;101829.09;4921859;29;20440;-88
2023/07/17 08:07:25;;;;;;;9.13;3.90;;;;;;;17.72;100.00;101803.00;4921385;29;20632;-85
2023/07/17 08:09:50;;;;;;;6.30;2.57;;;;;;;17.16;100.00;101788.44;4921735;29;20570;-89
2023/07/17 08:12:15;;;;;;;4.03;1.60;;;;;;;16.66;100.00;101713.28;4917684;29;20260;-90
2023/07/17 08:14:41;;;;;;;5.03;2.37;;;;;;;16.20;100.00;101662.91;4923660;29;20196;-88
2023/07/17 08:17:07;;;;;;;6.10;2.13;;;;;;;17.24;100.00;101823.41;4920558;29;20731;-89
2023/07/17 08:19:32;;;;;;;7.20;1.97;;;;;;;16.93;100.00;101778.16;4922489;29;20235;-91
2023/07/17 08:21:57;;;;;;;4.83;2.23;;;;;;;17.06;100.00;101834.16;4926004;28;20194;-87
2023/07/17 08:24:23;;;;;;;4.60;1.80;;;;;;;16.70;100.00;101759.72;4921701;29;20208;-88
2023/07/17 08:26:48;;;;;;;5.77;2.17;;;;;;;16.42;100.00;101746.53;4919978;29;20192;-88
2023/07/17 08:29:14;;;;;;;5.63;2.57;;;;;;;17.05;100.00;101822.50;4921782;29;20216;-85
2023/07/17 08:31:40;;;;;;;6.60;2.40;;;;;;;17.23;100.00;101913.94;4919425;29;20865;-88
2023/07/17 08:34:05;;;;;;;9.10;3.00;;;;;;;17.51;100.00;101902.69;4926375;29;20852;-90
2023/07/17 08:36:31;;;;;;;6.97;2.97;;;;;;;17.15;100.00;101806.59;4923118;29;20567;-92
2023/07/17 08:38:58;;;;;;;6.00;3.00;;;;;;;17.90;100.00;101880.94;4924030;29;20302;-90
2023/07/17 08:41:24;;;;;;;6.73;2.67;;;;;;;17.76;100.00;101864.75;4920196;29;20447;-89
2023/07/17 08:43:50;;;;;;;7.53;3.10;;;;;;;18.04;100.00;101871.63;4920671;29;20470;-88
2023/07/17 08:46:16;;;;;;;7.43;3.03;;;;;;;17.93;100.00;101864.19;4918231;29;20436;-93
2023/07/17 08:48:43;;;;;;;6.07;2.97;;;;;;;17.96;100.00;101869.19;4918529;29;20886;-86
2023/07/17 08:51:11;;;;;;;6.00;3.30;;;;;;;17.94;100.00;101868.59;4918442;29;20200;-86
2023/07/17 08:53:42;;;;;;;7.20;3.20;;;;;;;17.95;100.00;101889.25;4917815;29;20569;-88
2023/07/17 08:56:08;;;;;;;7.73;3.10;;;;;;;17.53;100.00;101892.47;4925599;29;20479;-89
2023/07/17 08:58:35;;;;;;;8.33;2.93;;;;;;;17.50;100.00;101911.91;4921708;29;20472;-90
2023/07/17 09:01:00;;;;;;;6.23;2.80;;;;;;;17.06;100.00;101801.63;4923840;29;20189;-90
2023/07/17 09:03:26;;;;;;;6.40;2.80;;;;;;;16.72;100.00;101779.28;4924635;29;20451;-91
2023/07/17 09:05:51;;;;;;;7.10;3.17;;;;;;;17.14;100.00;101833.91;4925186;29;20184;-88
2023/07/17 09:08:17;;;;;;;6.17;3.20;;;;;;;17.55;100.00;101901.22;4919996;29;20682;-87
2023/07/17 09:10:42;;;;;;;7.17;3.47;;;;;;;17.65;100.00;101870.03;4918927;29;20752;-88
2023/07/17 09:13:08;;;;;;;7.37;3.57;;;;;;;17.16;100.00;101764.88;4920372;29;20631;-87
2023/07/17 09:15:34;;;;;;;8.50;2.80;;;;;;;17.96;100.00;101894.44;4916091;29;20296;-87
2023/07/17 09:18:00;;;;;;;6.17;2.87;;;;;;;18.07;100.00;101906.47;4922947;29;20518;-91
2023/07/17 09:20:26;;;;;;;6.70;2.90;;;;;;;17.94;100.00;101847.72;4925314;29;20208;-92
2023/07/17 09:22:58;;;;;;;10.93;2.80;;;;;;;18.68;100.00;101894.75;4923338;29;20947;-89
2023/07/17 09:25:28;;;;;;;9.20;3.60;;;;;;;18.19;100.00;101855.78;4923431;29;20234;-90
2023/07/17 09:27:54;;;;;;;5.50;3.17;;;;;;;18.02;100.00;101909.00;4924794;29;20428;-92
2023/07/17 09:30:23;;;;;;;9.80;4.17;;;;;;;17.66;100.00;101929.53;4933264;29;20467;-90
2023/07/17 09:32:50;;;;;;;8.80;3.60;;;;;;;17.64;100.00;102023.84;4919344;29;20459;-84
2023/07/17 09:35:19;;;;;;;7.73;3.63;;;;;;;17.75;100.00;102050.31;4924778;29;20884;-84
2023/07/17 09:37:45;;;;;;;7.43;3.53;;;;;;;17.80;100.00;102110.22;4938090;28;20483;-84
2023/07/17 09:40:12;;;;;;;10.10;3.53;;;;;;;17.76;100.00;102133.41;4921553;29;20454;-85
2023/07/17 09:42:45;;;;;;;7.43;3.80;;;;;;;17.69;100.00;102140.72;4916485;29;20451;-86
2023/07/17 09:45:11;;;;;;;7.83;3.40;;;;;;;16.87;100.00;102071.69;4937621;28;21079;-86
2023/07/17 09:47:38;;;;;;;6.47;2.83;;;;;;;17.52;100.00;102153.09;4931548;29;20940;-86
2023/07/17 09:50:04;;;;;;;7.30;3.47;;;;;;;17.62;100.00;102180.63;4920577;29;20964;-80
2023/07/17 09:52:31;;;;;;;5.30;2.97;;;;;;;17.72;100.00;102153.84;4917146;29;20513;-85
2023/07/17 09:55:01;;;;;;;6.80;2.93;;;;;;;17.29;100.00;102061.38;4920885;29;21120;-85
2023/07/17 09:57:34;;;;;;;5.37;3.40;;;;;;;17.75;100.00;102084.75;4922158;29;20480;-85
2023/07/17 10:00:21;;;;;;;8.10;2.60;;;;;;;17.88;100.00;102056.72;4922663;29;20565;-84
2023/07/17 10:03:13;;;;;;;7.67;2.30;;;;;;;17.95;100.00;102020.38;4922573;29;20542;-84
2023/07/17 10:05:39;;;;;;;4.80;3.07;;;;;;;18.18;100.00;102022.50;4919204;29;20546;-85
2023/07/17 10:08:07;;;;;;;4.60;2.47;;;;;;;18.51;100.00;101996.94;4934736;28;20550;-85
2023/07/17 10:10:32;;;;;;;6.07;2.50;;;;;;;18.51;100.00;102007.78;4922124;29;20550;-83
2023/07/17 10:12:59;;;;;;;3.97;2.37;;;;;;;18.34;100.00;101979.53;4919341;29;20458;-84
2023/07/17 10:15:25;;;;;;;4.90;2.30;;;;;;;18.43;100.00;101970.06;4920585;29;20191;-85
2023/07/17 10:17:58;;;;;;;4.97;2.20;;;;;;;17.87;100.00;101827.09;4931944;28;20476;-84
2023/07/17 10:20:24;;;;;;;4.77;2.30;;;;;;;18.50;100.00;101894.75;4923415;29;20979;-83
2023/07/17 10:22:49;;;;;;;4.50;2.30;;;;;;;17.78;100.00;101748.69;4915290;29;20454;-84
2023/07/17 10:25:18;;;;;;;5.43;2.23;;;;;;;18.41;100.00;101825.50;4925798;29;20455;-85
2023/07/17 10:27:52;;;;;;;4.60;1.90;;;;;;;18.56;100.00;101817.78;4924729;29;20579;-84
2023/07/17 10:30:24;;;;;;;6.63;2.50;;;;;;;17.60;100.00;101659.13;4917786;29;20563;-83
2023/07/17 10:33:03;;;;;;;10.13;2.27;;;;;;;18.57;100.00;101737.91;4925466;29;20443;-83
2023/07/17 10:35:42;;;;;;;4.93;2.00;;;;;;;18.82;100.00;101699.75;4917246;29;20439;-82
2023/07/17 10:38:11;;;;;;;2.63;1.63;;;;;;;18.94;100.00;101662.53;4921087;29;21221;-84
2023/07/17 10:40:36;;;;;;;5.17;1.83;;;;;;;18.71;100.00;101608.94;4923751;29;21015;-85
2023/07/17 10:43:12;;;;;;;3.20;1.80;;;;;;;19.29;100.00;101645.41;4918525;29;20533;-85
2023/07/17 10:45:37;;;;;;;9.30;1.80;;;;;;;19.04;100.00;101626.63;4914152;29;22063;-83
2023/07/17 10:48:05;;;;;;;5.27;1.77;;;;;;;18.53;100.00;101552.00;4917079;29;20451;-84
2023/07/17 10:50:30;;;;;;;6.77;2.10;;;;;;;19.25;100.00;101627.09;4918249;29;20196;-85
2023/07/17 10:53:05;;;;;;;5.50;2.20;;;;;;;19.56;100.00;101617.72;4914912;29;20518;-83
2023/07/17 10:55:32;;;;;;;3.60;1.50;;;;;;;19.48;100.00;101616.19;4922000;29;20672;-85
2023/07/17 10:58:00;;;;;;;5.07;2.00;;;;;;;18.94;100.00;101572.84;4921015;29;21064;-86
2023/07/17 11:00:25;;;;;;;4.90;1.73;;;;;;;19.20;100.00;101603.31;4917418;29;20485;-85
2023/07/17 11:02:51;;;;;;;3.30;1.67;;;;;;;19.49;100.00;101630.63;4919471;29;20451;-85
2023/07/17 11:05:16;;;;;;;5.20;2.10;;;;;;;19.23;100.00;101566.69;4918392;29;20196;-85
2023/07/17 11:07:42;;;;;;;4.30;1.83;;;;;;;19.21;100.00;101564.22;4921878;29;21211;-84
2023/07/17 11:10:12;;;;;;;5.57;2.47;;;;;;;19.18;100.00;101559.25;4915886;29;20227;-85
2023/07/17 11:12:41;;;;;;;7.27;1.90;;;;;;;19.79;100.00;101627.75;4921680;29;20596;-84